sensor_id;sensor_type;location;lat;lon;timestamp;P1;durP1;ratioP1;P2;durP2;ratioP2
20462;SDS011;10390;53.566;9.980;2022-10-16T00:00:16;8.43;;;7.72;;
20462;SDS011;10390;53.566;9.980;2022-10-16T00:02:42;8.60;;;7.90;;
20462;SDS011;10390;53.566;9.980;2022-10-16T00:05:07;8.50;;;7.88;;
20462;SDS011;10390;53.566;9.980;2022-10-16T00:07:33;8.40;;;7.70;;
20462;SDS011;10390;53.566;9.980;2022-10-16T00:09:59;8.50;;;7.88;;
20462;SDS011;10390;53.566;9.980;2022-10-16T00:12:25;8.30;;;7.70;;
20462;SDS011;10390;53.566;9.980;2022-10-16T00:14:50;8.65;;;7.95;;
20462;SDS011;10390;53.566;9.980;2022-10-16T00:17:16;8.40;;;7.78;;
20462;SDS011;10390;53.566;9.980;2022-10-16T00:19:42;9.00;;;8.30;;
20462;SDS011;10390;53.566;9.980;2022-10-16T00:22:07;8.60;;;8.00;;
20462;SDS011;10390;53.566;9.980;2022-10-16T00:24:33;8.73;;;8.02;;
20462;SDS011;10390;53.566;9.980;2022-10-16T00:26:59;9.85;;;9.05;;
20462;SDS011;10390;53.566;9.980;2022-10-16T00:29:24;8.80;;;8.10;;
20462;SDS011;10390;53.566;9.980;2022-10-16T00:31:50;8.75;;;8.05;;
20462;SDS011;10390;53.566;9.980;2022-10-16T00:34:15;9.20;;;8.50;;
20462;SDS011;10390;53.566;9.980;2022-10-16T00:36:41;8.50;;;7.80;;
20462;SDS011;10390;53.566;9.980;2022-10-16T00:39:06;9.43;;;8.63;;
20462;SDS011;10390;53.566;9.980;2022-10-16T00:41:32;9.50;;;8.70;;
20462;SDS011;10390;53.566;9.980;2022-10-16T00:43:59;9.05;;;8.35;;
20462;SDS011;10390;53.566;9.980;2022-10-16T00:49:10;9.20;;;8.50;;
20462;SDS011;10390;53.566;9.980;2022-10-16T00:51:41;9.25;;;8.52;;
20462;SDS011;10390;53.566;9.980;2022-10-16T00:54:13;9.10;;;8.30;;
20462;SDS011;10390;53.566;9.980;2022-10-16T00:56:42;9.43;;;8.63;;
20462;SDS011;10390;53.566;9.980;2022-10-16T00:59:15;9.10;;;8.40;;
20462;SDS011;10390;53.566;9.980;2022-10-16T01:01:44;8.65;;;7.95;;
20462;SDS011;10390;53.566;9.980;2022-10-16T01:04:10;9.63;;;8.93;;
20462;SDS011;10390;53.566;9.980;2022-10-16T01:12:21;8.90;;;8.10;;
20462;SDS011;10390;53.566;9.980;2022-10-16T01:20:16;8.45;;;7.85;;
20462;SDS011;10390;53.566;9.980;2022-10-16T01:22:59;8.82;;;8.13;;
20462;SDS011;10390;53.566;9.980;2022-10-16T01:28:39;8.70;;;8.00;;
20462;SDS011;10390;53.566;9.980;2022-10-16T01:31:09;7.90;;;7.25;;
20462;SDS011;10390;53.566;9.980;2022-10-16T01:33:41;8.35;;;7.68;;
20462;SDS011;10390;53.566;9.980;2022-10-16T01:36:13;8.85;;;8.15;;
20462;SDS011;10390;53.566;9.980;2022-10-16T01:38:49;8.75;;;8.05;;
20462;SDS011;10390;53.566;9.980;2022-10-16T01:41:21;8.38;;;7.68;;
20462;SDS011;10390;53.566;9.980;2022-10-16T01:43:57;8.30;;;7.60;;
20462;SDS011;10390;53.566;9.980;2022-10-16T01:46:27;8.13;;;7.53;;
20462;SDS011;10390;53.566;9.980;2022-10-16T01:48:55;8.52;;;7.93;;
20462;SDS011;10390;53.566;9.980;2022-10-16T01:51:22;8.18;;;7.57;;
20462;SDS011;10390;53.566;9.980;2022-10-16T01:53:50;8.77;;;8.07;;
20462;SDS011;10390;53.566;9.980;2022-10-16T01:56:23;8.45;;;7.70;;
20462;SDS011;10390;53.566;9.980;2022-10-16T01:58:53;8.00;;;7.40;;
20462;SDS011;10390;53.566;9.980;2022-10-16T02:01:24;8.43;;;7.72;;
20462;SDS011;10390;53.566;9.980;2022-10-16T02:03:54;8.10;;;7.50;;
20462;SDS011;10390;53.566;9.980;2022-10-16T02:06:23;8.20;;;7.57;;
20462;SDS011;10390;53.566;9.980;2022-10-16T02:08:52;8.15;;;7.53;;
20462;SDS011;10390;53.566;9.980;2022-10-16T02:11:30;8.23;;;7.63;;
20462;SDS011;10390;53.566;9.980;2022-10-16T02:14:00;8.52;;;7.93;;
20462;SDS011;10390;53.566;9.980;2022-10-16T02:16:39;7.85;;;7.25;;
20462;SDS011;10390;53.566;9.980;2022-10-16T02:19:13;7.72;;;7.13;;
20462;SDS011;10390;53.566;9.980;2022-10-16T02:21:44;7.97;;;7.32;;
20462;SDS011;10390;53.566;9.980;2022-10-16T02:27:33;7.90;;;7.30;;
20462;SDS011;10390;53.566;9.980;2022-10-16T02:30:17;8.38;;;7.78;;
20462;SDS011;10390;53.566;9.980;2022-10-16T02:32:54;7.90;;;7.30;;
20462;SDS011;10390;53.566;9.980;2022-10-16T02:35:22;8.27;;;7.57;;
20462;SDS011;10390;53.566;9.980;2022-10-16T02:37:49;7.63;;;7.03;;
20462;SDS011;10390;53.566;9.980;2022-10-16T02:40:16;8.20;;;7.60;;
20462;SDS011;10390;53.566;9.980;2022-10-16T02:42:42;7.60;;;7.00;;
20462;SDS011;10390;53.566;9.980;2022-10-16T02:45:09;8.00;;;7.40;;
20462;SDS011;10390;53.566;9.980;2022-10-16T02:47:36;8.43;;;7.82;;
20462;SDS011;10390;53.566;9.980;2022-10-16T02:50:06;8.18;;;7.57;;
20462;SDS011;10390;53.566;9.980;2022-10-16T02:52:32;8.25;;;7.65;;
20462;SDS011;10390;53.566;9.980;2022-10-16T02:54:57;8.15;;;7.55;;
20462;SDS011;10390;53.566;9.980;2022-10-16T02:57:25;7.70;;;7.10;;
20462;SDS011;10390;53.566;9.980;2022-10-16T02:59:52;8.23;;;7.63;;
20462;SDS011;10390;53.566;9.980;2022-10-16T03:02:18;7.30;;;6.80;;
20462;SDS011;10390;53.566;9.980;2022-10-16T03:04:43;8.05;;;7.45;;
20462;SDS011;10390;53.566;9.980;2022-10-16T03:07:09;7.80;;;7.20;;
20462;SDS011;10390;53.566;9.980;2022-10-16T03:09:35;8.48;;;7.88;;
20462;SDS011;10390;53.566;9.980;2022-10-16T03:12:00;8.35;;;7.75;;
20462;SDS011;10390;53.566;9.980;2022-10-16T03:14:26;8.18;;;7.57;;
20462;SDS011;10390;53.566;9.980;2022-10-16T03:16:56;7.90;;;7.30;;
20462;SDS011;10390;53.566;9.980;2022-10-16T03:19:21;8.40;;;7.70;;
20462;SDS011;10390;53.566;9.980;2022-10-16T03:21:47;8.35;;;7.55;;
20462;SDS011;10390;53.566;9.980;2022-10-16T03:24:13;8.73;;;8.02;;
20462;SDS011;10390;53.566;9.980;2022-10-16T03:26:39;8.05;;;7.45;;
20462;SDS011;10390;53.566;9.980;2022-10-16T03:29:05;8.77;;;8.07;;
20462;SDS011;10390;53.566;9.980;2022-10-16T03:31:31;8.20;;;7.53;;
20462;SDS011;10390;53.566;9.980;2022-10-16T03:33:57;8.82;;;8.02;;
20462;SDS011;10390;53.566;9.980;2022-10-16T03:36:23;8.50;;;7.80;;
20462;SDS011;10390;53.566;9.980;2022-10-16T03:38:48;7.57;;;6.97;;
20462;SDS011;10390;53.566;9.980;2022-10-16T03:41:14;8.13;;;7.43;;
20462;SDS011;10390;53.566;9.980;2022-10-16T03:43:42;8.05;;;7.45;;
20462;SDS011;10390;53.566;9.980;2022-10-16T03:46:08;8.35;;;7.65;;
20462;SDS011;10390;53.566;9.980;2022-10-16T03:48:33;8.18;;;7.47;;
20462;SDS011;10390;53.566;9.980;2022-10-16T03:50:59;8.20;;;7.60;;
20462;SDS011;10390;53.566;9.980;2022-10-16T03:53:25;8.40;;;7.70;;
20462;SDS011;10390;53.566;9.980;2022-10-16T03:55:50;8.07;;;7.47;;
20462;SDS011;10390;53.566;9.980;2022-10-16T03:58:16;8.20;;;7.60;;
20462;SDS011;10390;53.566;9.980;2022-10-16T04:00:43;8.50;;;7.90;;
20462;SDS011;10390;53.566;9.980;2022-10-16T04:03:09;7.93;;;7.32;;
20462;SDS011;10390;53.566;9.980;2022-10-16T04:05:36;8.10;;;7.40;;
20462;SDS011;10390;53.566;9.980;2022-10-16T04:08:02;7.60;;;7.00;;
20462;SDS011;10390;53.566;9.980;2022-10-16T04:10:28;8.20;;;7.60;;
20462;SDS011;10390;53.566;9.980;2022-10-16T04:12:53;7.60;;;7.00;;
20462;SDS011;10390;53.566;9.980;2022-10-16T04:15:21;7.85;;;7.25;;
20462;SDS011;10390;53.566;9.980;2022-10-16T04:17:47;7.40;;;6.80;;
20462;SDS011;10390;53.566;9.980;2022-10-16T04:20:12;8.13;;;7.53;;
20462;SDS011;10390;53.566;9.980;2022-10-16T04:22:38;7.70;;;7.10;;
20462;SDS011;10390;53.566;9.980;2022-10-16T04:25:04;7.60;;;7.00;;
20462;SDS011;10390;53.566;9.980;2022-10-16T04:27:30;7.88;;;7.28;;
20462;SDS011;10390;53.566;9.980;2022-10-16T04:29:56;7.90;;;7.30;;
20462;SDS011;10390;53.566;9.980;2022-10-16T04:32:23;8.02;;;7.43;;
20462;SDS011;10390;53.566;9.980;2022-10-16T04:34:48;8.10;;;7.50;;
20462;SDS011;10390;53.566;9.980;2022-10-16T04:37:14;8.13;;;7.53;;
20462;SDS011;10390;53.566;9.980;2022-10-16T04:39:39;7.85;;;7.25;;
20462;SDS011;10390;53.566;9.980;2022-10-16T04:42:12;8.18;;;7.57;;
20462;SDS011;10390;53.566;9.980;2022-10-16T04:44:38;7.55;;;6.95;;
20462;SDS011;10390;53.566;9.980;2022-10-16T04:47:03;7.95;;;7.35;;
20462;SDS011;10390;53.566;9.980;2022-10-16T04:49:29;8.25;;;7.65;;
20462;SDS011;10390;53.566;9.980;2022-10-16T04:51:55;7.68;;;7.07;;
20462;SDS011;10390;53.566;9.980;2022-10-16T04:54:20;8.30;;;7.60;;
20462;SDS011;10390;53.566;9.980;2022-10-16T04:56:46;8.05;;;7.45;;
20462;SDS011;10390;53.566;9.980;2022-10-16T04:59:16;7.88;;;7.22;;
20462;SDS011;10390;53.566;9.980;2022-10-16T05:01:43;7.80;;;7.20;;
20462;SDS011;10390;53.566;9.980;2022-10-16T05:04:08;7.43;;;6.93;;
20462;SDS011;10390;53.566;9.980;2022-10-16T05:06:34;7.40;;;6.85;;
20462;SDS011;10390;53.566;9.980;2022-10-16T05:09:00;7.45;;;6.85;;
20462;SDS011;10390;53.566;9.980;2022-10-16T05:11:26;8.10;;;7.50;;
20462;SDS011;10390;53.566;9.980;2022-10-16T05:13:52;8.05;;;7.45;;
20462;SDS011;10390;53.566;9.980;2022-10-16T05:16:20;7.72;;;7.13;;
20462;SDS011;10390;53.566;9.980;2022-10-16T05:18:46;7.95;;;7.35;;
20462;SDS011;10390;53.566;9.980;2022-10-16T05:21:12;7.55;;;6.95;;
20462;SDS011;10390;53.566;9.980;2022-10-16T05:23:37;7.50;;;6.90;;
20462;SDS011;10390;53.566;9.980;2022-10-16T05:26:03;7.53;;;6.93;;
20462;SDS011;10390;53.566;9.980;2022-10-16T05:28:29;7.90;;;7.30;;
20462;SDS011;10390;53.566;9.980;2022-10-16T05:30:56;7.70;;;7.10;;
20462;SDS011;10390;53.566;9.980;2022-10-16T05:33:23;7.38;;;6.78;;
20462;SDS011;10390;53.566;9.980;2022-10-16T05:35:51;8.02;;;7.32;;
20462;SDS011;10390;53.566;9.980;2022-10-16T05:38:17;6.70;;;6.20;;
20462;SDS011;10390;53.566;9.980;2022-10-16T05:40:43;7.40;;;6.80;;
20462;SDS011;10390;53.566;9.980;2022-10-16T05:43:15;6.75;;;6.25;;
20462;SDS011;10390;53.566;9.980;2022-10-16T05:45:40;7.38;;;6.78;;
20462;SDS011;10390;53.566;9.980;2022-10-16T05:48:06;6.75;;;6.25;;
20462;SDS011;10390;53.566;9.980;2022-10-16T05:50:31;6.95;;;6.35;;
20462;SDS011;10390;53.566;9.980;2022-10-16T05:52:57;7.50;;;6.80;;
20462;SDS011;10390;53.566;9.980;2022-10-16T05:55:23;7.35;;;6.75;;
20462;SDS011;10390;53.566;9.980;2022-10-16T05:57:54;7.70;;;7.10;;
20462;SDS011;10390;53.566;9.980;2022-10-16T06:00:20;7.55;;;6.95;;
20462;SDS011;10390;53.566;9.980;2022-10-16T06:02:45;7.40;;;6.72;;
20462;SDS011;10390;53.566;9.980;2022-10-16T06:05:11;7.35;;;6.75;;
20462;SDS011;10390;53.566;9.980;2022-10-16T06:07:37;8.07;;;7.47;;
20462;SDS011;10390;53.566;9.980;2022-10-16T06:10:03;7.10;;;6.50;;
20462;SDS011;10390;53.566;9.980;2022-10-16T06:12:29;8.00;;;7.30;;
20462;SDS011;10390;53.566;9.980;2022-10-16T06:14:55;7.15;;;6.50;;
20462;SDS011;10390;53.566;9.980;2022-10-16T06:17:23;7.25;;;6.65;;
20462;SDS011;10390;53.566;9.980;2022-10-16T06:19:49;7.40;;;6.72;;
20462;SDS011;10390;53.566;9.980;2022-10-16T06:22:15;7.10;;;6.50;;
20462;SDS011;10390;53.566;9.980;2022-10-16T06:24:41;7.03;;;6.32;;
20462;SDS011;10390;53.566;9.980;2022-10-16T06:27:06;7.72;;;7.13;;
20462;SDS011;10390;53.566;9.980;2022-10-16T06:29:32;6.82;;;6.32;;
20462;SDS011;10390;53.566;9.980;2022-10-16T06:31:57;7.57;;;6.97;;
20462;SDS011;10390;53.566;9.980;2022-10-16T06:34:23;7.50;;;6.90;;
20462;SDS011;10390;53.566;9.980;2022-10-16T06:36:49;6.88;;;6.38;;
20462;SDS011;10390;53.566;9.980;2022-10-16T06:39:14;7.30;;;6.72;;
20462;SDS011;10390;53.566;9.980;2022-10-16T06:41:42;7.72;;;7.03;;
20462;SDS011;10390;53.566;9.980;2022-10-16T06:44:07;7.40;;;6.80;;
20462;SDS011;10390;53.566;9.980;2022-10-16T06:46:34;7.38;;;6.78;;
20462;SDS011;10390;53.566;9.980;2022-10-16T06:49:00;7.40;;;6.80;;
20462;SDS011;10390;53.566;9.980;2022-10-16T06:51:26;7.68;;;7.07;;
20462;SDS011;10390;53.566;9.980;2022-10-16T06:53:52;7.35;;;6.65;;
20462;SDS011;10390;53.566;9.980;2022-10-16T06:56:20;7.30;;;6.60;;
20462;SDS011;10390;53.566;9.980;2022-10-16T06:58:47;7.47;;;6.88;;
20462;SDS011;10390;53.566;9.980;2022-10-16T07:01:14;7.10;;;6.50;;
20462;SDS011;10390;53.566;9.980;2022-10-16T07:03:41;7.18;;;6.57;;
20462;SDS011;10390;53.566;9.980;2022-10-16T07:06:09;7.07;;;6.47;;
20462;SDS011;10390;53.566;9.980;2022-10-16T07:08:38;7.32;;;6.63;;
20462;SDS011;10390;53.566;9.980;2022-10-16T07:11:08;7.35;;;6.70;;
20462;SDS011;10390;53.566;9.980;2022-10-16T07:13:36;7.60;;;6.90;;
20462;SDS011;10390;53.566;9.980;2022-10-16T07:16:13;7.20;;;6.60;;
20462;SDS011;10390;53.566;9.980;2022-10-16T07:18:41;7.57;;;6.72;;
20462;SDS011;10390;53.566;9.980;2022-10-16T07:21:11;7.90;;;7.30;;
20462;SDS011;10390;53.566;9.980;2022-10-16T07:23:39;7.57;;;6.97;;
20462;SDS011;10390;53.566;9.980;2022-10-16T07:26:06;7.35;;;6.65;;
20462;SDS011;10390;53.566;9.980;2022-10-16T07:28:32;7.75;;;7.15;;
20462;SDS011;10390;53.566;9.980;2022-10-16T07:31:06;7.38;;;6.78;;
20462;SDS011;10390;53.566;9.980;2022-10-16T07:33:33;7.60;;;7.00;;
20462;SDS011;10390;53.566;9.980;2022-10-16T07:36:00;7.28;;;6.68;;
20462;SDS011;10390;53.566;9.980;2022-10-16T07:38:26;7.30;;;6.70;;
20462;SDS011;10390;53.566;9.980;2022-10-16T07:41:24;7.43;;;6.82;;
20462;SDS011;10390;53.566;9.980;2022-10-16T07:43:50;6.47;;;5.88;;
20462;SDS011;10390;53.566;9.980;2022-10-16T07:46:18;6.90;;;6.30;;
20462;SDS011;10390;53.566;9.980;2022-10-16T07:48:45;7.28;;;6.68;;
20462;SDS011;10390;53.566;9.980;2022-10-16T07:51:13;7.05;;;6.45;;
20462;SDS011;10390;53.566;9.980;2022-10-16T07:53:44;6.93;;;6.32;;
20462;SDS011;10390;53.566;9.980;2022-10-16T07:56:10;7.25;;;6.65;;
20462;SDS011;10390;53.566;9.980;2022-10-16T07:58:36;7.13;;;6.53;;
20462;SDS011;10390;53.566;9.980;2022-10-16T08:01:08;7.20;;;6.47;;
20462;SDS011;10390;53.566;9.980;2022-10-16T08:03:35;7.45;;;6.88;;
20462;SDS011;10390;53.566;9.980;2022-10-16T08:06:01;7.45;;;6.68;;
20462;SDS011;10390;53.566;9.980;2022-10-16T08:08:28;7.60;;;6.90;;
20462;SDS011;10390;53.566;9.980;2022-10-16T08:10:55;7.57;;;6.88;;
20462;SDS011;10390;53.566;9.980;2022-10-16T08:13:21;7.15;;;6.60;;
20462;SDS011;10390;53.566;9.980;2022-10-16T08:15:47;8.32;;;6.85;;
20462;SDS011;10390;53.566;9.980;2022-10-16T08:21:35;7.00;;;6.45;;
20462;SDS011;10390;53.566;9.980;2022-10-16T08:24:01;6.82;;;6.22;;
20462;SDS011;10390;53.566;9.980;2022-10-16T08:26:27;7.60;;;6.25;;
20462;SDS011;10390;53.566;9.980;2022-10-16T08:28:57;7.47;;;6.78;;
20462;SDS011;10390;53.566;9.980;2022-10-16T08:31:23;6.85;;;6.28;;
20462;SDS011;10390;53.566;9.980;2022-10-16T08:33:49;6.82;;;6.22;;
20462;SDS011;10390;53.566;9.980;2022-10-16T08:36:20;7.40;;;6.70;;
20462;SDS011;10390;53.566;9.980;2022-10-16T08:38:49;7.68;;;6.97;;
20462;SDS011;10390;53.566;9.980;2022-10-16T08:41:19;7.30;;;6.70;;
20462;SDS011;10390;53.566;9.980;2022-10-16T08:46:53;7.00;;;6.40;;
20462;SDS011;10390;53.566;9.980;2022-10-16T08:49:23;7.45;;;6.85;;
20462;SDS011;10390;53.566;9.980;2022-10-16T08:51:50;7.35;;;6.75;;
20462;SDS011;10390;53.566;9.980;2022-10-16T08:56:56;6.95;;;6.30;;
20462;SDS011;10390;53.566;9.980;2022-10-16T08:59:28;7.10;;;6.43;;
20462;SDS011;10390;53.566;9.980;2022-10-16T09:01:58;7.20;;;6.60;;
20462;SDS011;10390;53.566;9.980;2022-10-16T09:07:35;6.97;;;6.38;;
20462;SDS011;10390;53.566;9.980;2022-10-16T09:21:45;7.05;;;6.45;;
20462;SDS011;10390;53.566;9.980;2022-10-16T09:24:14;6.82;;;6.13;;
20462;SDS011;10390;53.566;9.980;2022-10-16T09:26:42;6.60;;;6.00;;
20462;SDS011;10390;53.566;9.980;2022-10-16T09:29:10;5.90;;;5.40;;
20462;SDS011;10390;53.566;9.980;2022-10-16T09:31:38;6.50;;;6.00;;
20462;SDS011;10390;53.566;9.980;2022-10-16T09:34:04;6.90;;;6.30;;
20462;SDS011;10390;53.566;9.980;2022-10-16T09:36:36;6.55;;;5.95;;
20462;SDS011;10390;53.566;9.980;2022-10-16T09:39:08;6.70;;;6.20;;
20462;SDS011;10390;53.566;9.980;2022-10-16T09:41:39;7.03;;;6.40;;
20462;SDS011;10390;53.566;9.980;2022-10-16T09:44:23;7.25;;;6.55;;
20462;SDS011;10390;53.566;9.980;2022-10-16T09:49:59;6.60;;;6.00;;
20462;SDS011;10390;53.566;9.980;2022-10-16T09:52:29;6.90;;;6.30;;
20462;SDS011;10390;53.566;9.980;2022-10-16T09:54:56;6.70;;;6.20;;
20462;SDS011;10390;53.566;9.980;2022-10-16T09:57:27;8.75;;;6.22;;
20462;SDS011;10390;53.566;9.980;2022-10-16T09:59:57;6.55;;;6.05;;
20462;SDS011;10390;53.566;9.980;2022-10-16T10:02:28;7.38;;;6.78;;
20462;SDS011;10390;53.566;9.980;2022-10-16T10:05:17;8.23;;;7.53;;
20462;SDS011;10390;53.566;9.980;2022-10-16T10:07:59;6.85;;;6.25;;
20462;SDS011;10390;53.566;9.980;2022-10-16T10:10:31;7.53;;;6.88;;
20462;SDS011;10390;53.566;9.980;2022-10-16T10:12:59;7.00;;;6.40;;
20462;SDS011;10390;53.566;9.980;2022-10-16T10:15:29;6.78;;;6.18;;
20462;SDS011;10390;53.566;9.980;2022-10-16T10:17:59;7.47;;;6.88;;
20462;SDS011;10390;53.566;9.980;2022-10-16T10:20:32;7.07;;;6.38;;
20462;SDS011;10390;53.566;9.980;2022-10-16T10:23:00;7.43;;;6.82;;
20462;SDS011;10390;53.566;9.980;2022-10-16T10:28:20;7.40;;;6.70;;
20462;SDS011;10390;53.566;9.980;2022-10-16T10:39:01;7.05;;;6.38;;
20462;SDS011;10390;53.566;9.980;2022-10-16T10:44:00;6.75;;;6.18;;
20462;SDS011;10390;53.566;9.980;2022-10-16T10:46:50;7.05;;;6.45;;
20462;SDS011;10390;53.566;9.980;2022-10-16T10:52:27;6.97;;;6.38;;
20462;SDS011;10390;53.566;9.980;2022-10-16T10:58:02;7.18;;;6.57;;
20462;SDS011;10390;53.566;9.980;2022-10-16T11:00:51;7.20;;;6.55;;
20462;SDS011;10390;53.566;9.980;2022-10-16T11:06:50;7.22;;;6.63;;
20462;SDS011;10390;53.566;9.980;2022-10-16T11:09:31;7.13;;;6.53;;
20462;SDS011;10390;53.566;9.980;2022-10-16T11:12:07;7.40;;;6.80;;
20462;SDS011;10390;53.566;9.980;2022-10-16T11:17:08;7.75;;;7.15;;
20462;SDS011;10390;53.566;9.980;2022-10-16T11:19:52;7.97;;;7.38;;
20462;SDS011;10390;53.566;9.980;2022-10-16T11:25:26;6.97;;;6.45;;
20462;SDS011;10390;53.566;9.980;2022-10-16T11:30:33;6.72;;;6.20;;
20462;SDS011;10390;53.566;9.980;2022-10-16T11:39:38;7.60;;;7.00;;
20462;SDS011;10390;53.566;9.980;2022-10-16T11:41:34;7.88;;;7.18;;
20462;SDS011;10390;53.566;9.980;2022-10-16T11:50:25;7.03;;;6.43;;
20462;SDS011;10390;53.566;9.980;2022-10-16T11:53:19;7.55;;;6.85;;
20462;SDS011;10390;53.566;9.980;2022-10-16T11:55:50;8.35;;;7.55;;
20462;SDS011;10390;53.566;9.980;2022-10-16T11:58:27;8.15;;;7.50;;
20462;SDS011;10390;53.566;9.980;2022-10-16T12:03:42;7.47;;;6.80;;
20462;SDS011;10390;53.566;9.980;2022-10-16T12:08:43;7.20;;;6.60;;
20462;SDS011;10390;53.566;9.980;2022-10-16T12:11:20;7.30;;;6.70;;
20462;SDS011;10390;53.566;9.980;2022-10-16T12:14:04;6.57;;;6.07;;
20462;SDS011;10390;53.566;9.980;2022-10-16T12:16:38;7.40;;;6.70;;
20462;SDS011;10390;53.566;9.980;2022-10-16T12:19:16;7.43;;;6.82;;
20462;SDS011;10390;53.566;9.980;2022-10-16T12:21:43;6.60;;;6.00;;
20462;SDS011;10390;53.566;9.980;2022-10-16T12:26:59;7.72;;;7.10;;
20462;SDS011;10390;53.566;9.980;2022-10-16T12:32:29;7.00;;;6.40;;
20462;SDS011;10390;53.566;9.980;2022-10-16T12:34:53;8.52;;;7.32;;
20462;SDS011;10390;53.566;9.980;2022-10-16T12:39:46;7.15;;;6.63;;
20462;SDS011;10390;53.566;9.980;2022-10-16T12:44:51;7.13;;;6.53;;
20462;SDS011;10390;53.566;9.980;2022-10-16T12:47:19;7.22;;;6.63;;
20462;SDS011;10390;53.566;9.980;2022-10-16T12:49:57;7.20;;;6.60;;
20462;SDS011;10390;53.566;9.980;2022-10-16T12:52:45;7.50;;;6.90;;
20462;SDS011;10390;53.566;9.980;2022-10-16T12:55:16;8.10;;;7.47;;
20462;SDS011;10390;53.566;9.980;2022-10-16T13:00:24;7.20;;;6.65;;
20462;SDS011;10390;53.566;9.980;2022-10-16T13:05:43;7.97;;;6.82;;
20462;SDS011;10390;53.566;9.980;2022-10-16T13:16:40;7.80;;;7.10;;
20462;SDS011;10390;53.566;9.980;2022-10-16T13:19:47;7.95;;;7.30;;
20462;SDS011;10390;53.566;9.980;2022-10-16T13:27:54;7.32;;;6.63;;
20462;SDS011;10390;53.566;9.980;2022-10-16T13:30:24;7.40;;;6.80;;
20462;SDS011;10390;53.566;9.980;2022-10-16T13:35:54;7.78;;;7.18;;
20462;SDS011;10390;53.566;9.980;2022-10-16T13:38:22;7.97;;;7.25;;
20462;SDS011;10390;53.566;9.980;2022-10-16T13:41:05;7.47;;;6.85;;
20462;SDS011;10390;53.566;9.980;2022-10-16T13:43:45;7.45;;;6.75;;
20462;SDS011;10390;53.566;9.980;2022-10-16T13:46:15;8.57;;;7.80;;
20462;SDS011;10390;53.566;9.980;2022-10-16T13:49:05;9.90;;;9.10;;
20462;SDS011;10390;53.566;9.980;2022-10-16T13:51:39;10.15;;;9.25;;
20462;SDS011;10390;53.566;9.980;2022-10-16T13:54:04;10.50;;;9.50;;
20462;SDS011;10390;53.566;9.980;2022-10-16T13:56:31;10.40;;;9.40;;
20462;SDS011;10390;53.566;9.980;2022-10-16T13:59:05;12.05;;;10.88;;
20462;SDS011;10390;53.566;9.980;2022-10-16T14:02:25;13.88;;;12.48;;
20462;SDS011;10390;53.566;9.980;2022-10-16T14:04:54;20.02;;;16.67;;
20462;SDS011;10390;53.566;9.980;2022-10-16T14:07:28;19.88;;;16.85;;
20462;SDS011;10390;53.566;9.980;2022-10-16T14:10:22;19.80;;;16.30;;
20462;SDS011;10390;53.566;9.980;2022-10-16T14:12:54;16.92;;;14.65;;
20462;SDS011;10390;53.566;9.980;2022-10-16T14:15:22;12.27;;;11.02;;
20462;SDS011;10390;53.566;9.980;2022-10-16T14:17:49;12.55;;;11.45;;
20462;SDS011;10390;53.566;9.980;2022-10-16T14:20:17;11.40;;;10.30;;
20462;SDS011;10390;53.566;9.980;2022-10-16T14:22:43;11.75;;;10.65;;
20462;SDS011;10390;53.566;9.980;2022-10-16T14:30:55;11.18;;;10.15;;
20462;SDS011;10390;53.566;9.980;2022-10-16T14:36:01;10.98;;;9.98;;
20462;SDS011;10390;53.566;9.980;2022-10-16T14:41:46;11.32;;;10.23;;
20462;SDS011;10390;53.566;9.980;2022-10-16T14:44:14;9.75;;;8.80;;
20462;SDS011;10390;53.566;9.980;2022-10-16T14:46:41;11.77;;;10.57;;
20462;SDS011;10390;53.566;9.980;2022-10-16T14:51:35;13.27;;;11.98;;
20462;SDS011;10390;53.566;9.980;2022-10-16T14:54:01;15.73;;;12.43;;
20462;SDS011;10390;53.566;9.980;2022-10-16T14:56:32;14.93;;;12.23;;
20462;SDS011;10390;53.566;9.980;2022-10-16T14:59:00;12.68;;;11.38;;
20462;SDS011;10390;53.566;9.980;2022-10-16T15:01:27;12.70;;;11.20;;
20462;SDS011;10390;53.566;9.980;2022-10-16T15:03:53;12.70;;;11.40;;
20462;SDS011;10390;53.566;9.980;2022-10-16T15:06:20;11.70;;;10.60;;
20462;SDS011;10390;53.566;9.980;2022-10-16T15:08:46;11.57;;;10.40;;
20462;SDS011;10390;53.566;9.980;2022-10-16T15:11:14;12.48;;;11.23;;
20462;SDS011;10390;53.566;9.980;2022-10-16T15:13:41;11.68;;;10.57;;
20462;SDS011;10390;53.566;9.980;2022-10-16T15:16:10;11.25;;;10.15;;
20462;SDS011;10390;53.566;9.980;2022-10-16T15:18:37;11.60;;;10.48;;
20462;SDS011;10390;53.566;9.980;2022-10-16T15:21:03;10.80;;;9.70;;
20462;SDS011;10390;53.566;9.980;2022-10-16T15:23:28;10.32;;;9.25;;
20462;SDS011;10390;53.566;9.980;2022-10-16T15:25:54;10.50;;;9.50;;
20462;SDS011;10390;53.566;9.980;2022-10-16T15:28:22;10.75;;;9.65;;
20462;SDS011;10390;53.566;9.980;2022-10-16T15:30:50;10.07;;;9.05;;
20462;SDS011;10390;53.566;9.980;2022-10-16T15:33:18;9.82;;;8.82;;
20462;SDS011;10390;53.566;9.980;2022-10-16T15:35:46;9.60;;;8.70;;
20462;SDS011;10390;53.566;9.980;2022-10-16T15:38:13;8.55;;;7.75;;
20462;SDS011;10390;53.566;9.980;2022-10-16T15:40:40;8.88;;;8.07;;
20462;SDS011;10390;53.566;9.980;2022-10-16T15:43:06;9.98;;;8.98;;
20462;SDS011;10390;53.566;9.980;2022-10-16T15:45:32;10.23;;;9.25;;
20462;SDS011;10390;53.566;9.980;2022-10-16T15:47:58;10.40;;;9.40;;
20462;SDS011;10390;53.566;9.980;2022-10-16T15:50:24;9.73;;;8.73;;
20462;SDS011;10390;53.566;9.980;2022-10-16T15:52:50;10.02;;;9.13;;
20462;SDS011;10390;53.566;9.980;2022-10-16T15:55:16;9.80;;;8.90;;
20462;SDS011;10390;53.566;9.980;2022-10-16T15:57:43;9.88;;;8.93;;
20462;SDS011;10390;53.566;9.980;2022-10-16T16:00:13;9.80;;;8.80;;
20462;SDS011;10390;53.566;9.980;2022-10-16T16:02:41;10.18;;;9.18;;
20462;SDS011;10390;53.566;9.980;2022-10-16T16:05:07;10.57;;;9.68;;
20462;SDS011;10390;53.566;9.980;2022-10-16T16:07:34;10.55;;;9.48;;
20462;SDS011;10390;53.566;9.980;2022-10-16T16:10:01;10.60;;;9.60;;
20462;SDS011;10390;53.566;9.980;2022-10-16T16:12:26;10.55;;;9.63;;
20462;SDS011;10390;53.566;9.980;2022-10-16T16:14:52;10.15;;;9.25;;
20462;SDS011;10390;53.566;9.980;2022-10-16T16:17:18;10.25;;;9.25;;
20462;SDS011;10390;53.566;9.980;2022-10-16T16:19:43;10.63;;;9.60;;
20462;SDS011;10390;53.566;9.980;2022-10-16T16:22:14;9.38;;;8.57;;
20462;SDS011;10390;53.566;9.980;2022-10-16T16:24:40;10.20;;;9.27;;
20462;SDS011;10390;53.566;9.980;2022-10-16T16:27:06;9.82;;;8.85;;
20462;SDS011;10390;53.566;9.980;2022-10-16T16:29:32;9.13;;;8.23;;
20462;SDS011;10390;53.566;9.980;2022-10-16T16:31:59;10.00;;;9.00;;
20462;SDS011;10390;53.566;9.980;2022-10-16T16:34:26;8.65;;;7.78;;
20462;SDS011;10390;53.566;9.980;2022-10-16T16:36:53;9.20;;;8.30;;
20462;SDS011;10390;53.566;9.980;2022-10-16T16:39:19;9.55;;;8.30;;
20462;SDS011;10390;53.566;9.980;2022-10-16T16:41:45;9.50;;;8.50;;
20462;SDS011;10390;53.566;9.980;2022-10-16T16:44:11;10.05;;;8.18;;
20462;SDS011;10390;53.566;9.980;2022-10-16T16:46:38;9.57;;;8.57;;
20462;SDS011;10390;53.566;9.980;2022-10-16T16:49:04;9.63;;;8.60;;
20462;SDS011;10390;53.566;9.980;2022-10-16T16:51:30;9.80;;;8.80;;
20462;SDS011;10390;53.566;9.980;2022-10-16T16:53:56;10.20;;;8.88;;
20462;SDS011;10390;53.566;9.980;2022-10-16T16:56:22;11.07;;;9.88;;
20462;SDS011;10390;53.566;9.980;2022-10-16T16:58:49;13.05;;;10.45;;
20462;SDS011;10390;53.566;9.980;2022-10-16T17:01:16;12.50;;;11.02;;
20462;SDS011;10390;53.566;9.980;2022-10-16T17:06:14;12.80;;;10.43;;
20462;SDS011;10390;53.566;9.980;2022-10-16T17:08:40;12.85;;;11.00;;
20462;SDS011;10390;53.566;9.980;2022-10-16T17:11:11;12.40;;;11.10;;
20462;SDS011;10390;53.566;9.980;2022-10-16T17:13:41;14.30;;;11.50;;
20462;SDS011;10390;53.566;9.980;2022-10-16T17:16:07;12.18;;;9.90;;
20462;SDS011;10390;53.566;9.980;2022-10-16T17:18:33;13.30;;;11.20;;